Time;durP1;ratioP1;P1;durP2;ratioP2;P2;SDS_P1;SDS_P2;PMS_P1;PMS_P2;Temp;Humidity;BMP_temperature;BMP_pressure;BME280_temperature;BME280_humidity;BME280_pressure;Samples;Min_cycle;Max_cycle;Signal;HPM_P1;HPM_P2
2023/09/08 00:02:11;;;;;;;8.40;5.90;;;;;;;;;;4909926;29;20040;-80
2023/09/08 00:04:36;;;;;;;9.27;6.28;;;;;;;;;;4906890;29;20497;-80
2023/09/08 00:07:01;;;;;;;7.80;6.03;;;;;;;;;;4906616;29;20583;-80
2023/09/08 00:09:27;;;;;;;8.55;6.07;;;;;;;;;;4910993;29;20480;-79
2023/09/08 00:11:54;;;;;;;10.45;6.30;;;;;;;;;;4910047;29;20402;-80
2023/09/08 00:14:19;;;;;;;8.93;6.15;;;;;;;;;;4910488;29;20040;-79
2023/09/08 00:16:44;;;;;;;8.63;6.05;;;;;;;;;;4911177;29;20172;-80
2023/09/08 00:19:10;;;;;;;9.75;6.03;;;;;;;;;;4909845;29;20056;-80
2023/09/08 00:21:35;;;;;;;7.75;6.07;;;;;;;;;;4907679;29;20553;-80
2023/09/08 00:24:01;;;;;;;8.55;5.85;;;;;;;;;;4925315;29;20046;-80
2023/09/08 00:26:26;;;;;;;8.18;6.10;;;;;;;;;;4914863;29;20080;-80
2023/09/08 00:28:51;;;;;;;8.95;6.05;;;;;;;;;;4910390;29;20038;-80
2023/09/08 00:31:16;;;;;;;12.85;6.38;;;;;;;;;;4907967;29;20055;-80
2023/09/08 00:33:44;;;;;;;9.88;7.00;;;;;;;;;;4910511;29;20024;-80
2023/09/08 00:36:09;;;;;;;10.10;6.40;;;;;;;;;;4907194;29;20689;-80
2023/09/08 00:38:34;;;;;;;9.07;6.25;;;;;;;;;;4907676;29;20032;-80
2023/09/08 00:41:00;;;;;;;9.50;5.90;;;;;;;;;;4907977;29;20488;-80
2023/09/08 00:43:26;;;;;;;8.95;5.85;;;;;;;;;;4908855;29;20179;-81
2023/09/08 00:45:51;;;;;;;10.98;6.10;;;;;;;;;;4908695;29;20040;-80
2023/09/08 00:48:17;;;;;;;8.85;6.40;;;;;;;;;;4910899;29;20032;-80
2023/09/08 00:50:42;;;;;;;10.23;6.05;;;;;;;;;;4915770;29;20139;-80
2023/09/08 00:53:08;;;;;;;8.35;6.00;;;;;;;;;;4908702;29;20058;-79
2023/09/08 00:55:33;;;;;;;9.02;5.82;;;;;;;;;;4908976;29;20052;-80
2023/09/08 00:57:59;;;;;;;10.15;6.40;;;;;;;;;;4907848;29;20063;-80
2023/09/08 01:00:24;;;;;;;9.43;6.82;;;;;;;;;;4909663;29;20032;-80
2023/09/08 01:02:50;;;;;;;8.95;6.38;;;;;;;;;;4908556;29;20028;-80
2023/09/08 01:05:15;;;;;;;10.07;6.43;;;;;;;;;;4908356;29;20040;-80
2023/09/08 01:07:41;;;;;;;10.27;6.43;;;;;;;;;;4906927;29;20028;-80
2023/09/08 01:10:07;;;;;;;9.07;6.63;;;;;;;;;;4923580;29;20489;-80
2023/09/08 01:12:34;;;;;;;11.32;7.05;;;;;;;;;;4914032;29;20037;-80
2023/09/08 01:15:00;;;;;;;10.55;8.85;;;;;;;;;;4909694;29;20103;-79
2023/09/08 01:17:25;;;;;;;12.18;9.75;;;;;;;;;;4906554;29;20049;-80
2023/09/08 01:19:54;;;;;;;10.88;9.05;;;;;;;;;;4908860;29;20039;-80
2023/09/08 01:22:25;;;;;;;13.88;9.32;;;;;;;;;;4905523;29;20134;-80
2023/09/08 01:25:09;;;;;;;12.65;10.45;;;;;;;;;;4896766;29;20036;-80
2023/09/08 01:27:35;;;;;;;12.38;9.60;;;;;;;;;;4925779;29;20055;-80
2023/09/08 01:30:01;;;;;;;11.90;8.48;;;;;;;;;;4913165;29;20485;-79
2023/09/08 01:32:27;;;;;;;12.10;9.38;;;;;;;;;;4908426;29;20059;-80
2023/09/08 01:34:53;;;;;;;15.00;9.23;;;;;;;;;;4909888;29;20037;-80
2023/09/08 01:37:18;;;;;;;13.52;9.40;;;;;;;;;;4908074;29;20055;-79
2023/09/08 01:39:43;;;;;;;12.65;10.27;;;;;;;;;;4912932;29;20032;-80
2023/09/08 01:42:08;;;;;;;12.35;9.27;;;;;;;;;;4909555;29;20040;-80
2023/09/08 01:44:36;;;;;;;9.35;7.38;;;;;;;;;;4913060;29;20163;-79
2023/09/08 01:47:01;;;;;;;10.90;8.57;;;;;;;;;;4909470;29;20037;-80
2023/09/08 01:49:26;;;;;;;11.40;9.32;;;;;;;;;;4912098;29;20040;-80
2023/09/08 01:51:51;;;;;;;12.55;9.93;;;;;;;;;;4893468;29;20033;-80
2023/09/08 01:54:17;;;;;;;14.77;10.82;;;;;;;;;;4927961;29;20043;-80
2023/09/08 01:56:42;;;;;;;13.02;10.05;;;;;;;;;;4909182;29;20036;-80
2023/09/08 01:59:07;;;;;;;12.95;9.77;;;;;;;;;;4918968;29;20103;-80
2023/09/08 02:01:32;;;;;;;12.50;9.80;;;;;;;;;;4917662;29;20048;-79
2023/09/08 02:03:58;;;;;;;16.98;11.68;;;;;;;;;;4912614;29;20036;-80
2023/09/08 02:06:23;;;;;;;13.23;10.27;;;;;;;;;;4909714;29;20127;-80
2023/09/08 02:08:48;;;;;;;11.35;8.80;;;;;;;;;;4896830;29;20405;-80
2023/09/08 02:11:13;;;;;;;12.52;8.35;;;;;;;;;;4895247;29;20020;-80
2023/09/08 02:13:41;;;;;;;12.23;9.50;;;;;;;;;;4909606;29;20488;-79
2023/09/08 02:16:06;;;;;;;11.73;8.63;;;;;;;;;;4911775;29;20024;-80
2023/09/08 02:18:32;;;;;;;11.95;8.45;;;;;;;;;;4911045;29;20405;-80
2023/09/08 02:20:57;;;;;;;12.75;8.98;;;;;;;;;;4917774;29;20036;-80
2023/09/08 02:23:22;;;;;;;9.95;7.60;;;;;;;;;;4911845;29;20467;-80
2023/09/08 02:25:47;;;;;;;9.07;7.88;;;;;;;;;;4917819;29;20562;-80
2023/09/08 02:28:13;;;;;;;10.38;6.30;;;;;;;;;;4911517;29;20028;-80
2023/09/08 02:30:38;;;;;;;13.25;8.98;;;;;;;;;;4909484;29;20413;-80
2023/09/08 02:33:04;;;;;;;14.10;9.80;;;;;;;;;;4911900;29;20033;-80
2023/09/08 02:35:30;;;;;;;12.43;8.73;;;;;;;;;;4916685;29;20032;-80
2023/09/08 02:37:58;;;;;;;12.63;9.88;;;;;;;;;;4912046;29;20020;-80
2023/09/08 02:40:24;;;;;;;16.35;12.30;;;;;;;;;;4903133;29;20039;-80
2023/09/08 02:42:49;;;;;;;16.60;11.95;;;;;;;;;;4916165;29;20061;-80
2023/09/08 02:45:15;;;;;;;14.50;10.85;;;;;;;;;;4910549;29;20028;-79
2023/09/08 02:47:40;;;;;;;13.30;9.68;;;;;;;;;;4907663;29;20060;-80
2023/09/08 02:50:06;;;;;;;12.90;9.30;;;;;;;;;;4928063;29;20497;-80
2023/09/08 02:52:32;;;;;;;11.30;7.82;;;;;;;;;;4907836;29;20500;-80
2023/09/08 02:54:57;;;;;;;9.45;7.75;;;;;;;;;;4901225;29;20032;-80
2023/09/08 02:57:23;;;;;;;11.60;7.60;;;;;;;;;;4918792;29;20024;-80
2023/09/08 02:59:50;;;;;;;11.55;8.85;;;;;;;;;;4892162;29;20497;-80
2023/09/08 03:02:15;;;;;;;10.10;8.27;;;;;;;;;;4918399;29;20039;-80
2023/09/08 03:04:41;;;;;;;12.40;9.77;;;;;;;;;;4907317;29;20033;-80
2023/09/08 03:07:06;;;;;;;9.80;8.10;;;;;;;;;;4911243;29;20654;-80
2023/09/08 03:09:33;;;;;;;11.68;8.77;;;;;;;;;;4912141;29;20036;-80
2023/09/08 03:11:59;;;;;;;9.27;7.63;;;;;;;;;;4910859;29;20034;-80
2023/09/08 03:14:24;;;;;;;9.45;7.43;;;;;;;;;;4908198;29;20119;-80
2023/09/08 03:16:49;;;;;;;11.65;9.02;;;;;;;;;;4910346;29;20036;-79
2023/09/08 03:19:14;;;;;;;10.13;7.70;;;;;;;;;;4911379;29;20081;-80
2023/09/08 03:21:39;;;;;;;13.05;8.25;;;;;;;;;;4909695;29;20048;-80
2023/09/08 03:24:05;;;;;;;12.80;8.75;;;;;;;;;;4907680;29;20044;-80
2023/09/08 03:26:30;;;;;;;13.20;10.43;;;;;;;;;;4914343;29;20036;-81
2023/09/08 03:28:55;;;;;;;13.38;10.65;;;;;;;;;;4907445;29;20025;-79
2023/09/08 03:31:21;;;;;;;13.88;9.80;;;;;;;;;;4911232;29;20032;-80
2023/09/08 03:33:46;;;;;;;12.55;9.88;;;;;;;;;;4910541;29;20024;-80
2023/09/08 03:36:11;;;;;;;15.93;10.75;;;;;;;;;;4916800;29;20032;-80
2023/09/08 03:38:37;;;;;;;15.30;11.10;;;;;;;;;;4914540;29;20608;-80
2023/09/08 03:41:03;;;;;;;17.33;10.38;;;;;;;;;;4915225;29;20038;-80
2023/09/08 03:43:28;;;;;;;13.73;10.63;;;;;;;;;;4915392;29;20028;-80
2023/09/08 03:45:54;;;;;;;14.35;11.82;;;;;;;;;;4893870;29;20035;-78
2023/09/08 03:48:19;;;;;;;13.88;10.13;;;;;;;;;;4914062;29;20091;-80
2023/09/08 03:50:45;;;;;;;16.40;11.45;;;;;;;;;;4908784;29;20028;-80
2023/09/08 03:53:11;;;;;;;14.10;12.02;;;;;;;;;;4912527;29;20032;-80
2023/09/08 03:55:36;;;;;;;13.85;10.80;;;;;;;;;;4909812;29;20040;-80
2023/09/08 03:58:02;;;;;;;13.20;9.30;;;;;;;;;;4914742;29;20024;-79
2023/09/08 04:00:28;;;;;;;11.48;9.10;;;;;;;;;;4922328;29;20035;-80
2023/09/08 04:02:53;;;;;;;11.07;8.68;;;;;;;;;;4907757;29;20029;-80
2023/09/08 04:05:19;;;;;;;11.38;9.30;;;;;;;;;;4923238;29;20138;-80
2023/09/08 04:07:45;;;;;;;14.63;10.10;;;;;;;;;;4919332;29;20473;-79
2023/09/08 04:10:10;;;;;;;13.32;9.95;;;;;;;;;;4912984;29;20040;-79
2023/09/08 04:12:36;;;;;;;13.77;9.88;;;;;;;;;;4908730;29;20028;-80
2023/09/08 04:15:01;;;;;;;9.82;7.47;;;;;;;;;;4907253;29;20035;-79
2023/09/08 04:17:26;;;;;;;14.82;8.40;;;;;;;;;;4916629;29;20400;-80
2023/09/08 04:19:51;;;;;;;13.80;9.60;;;;;;;;;;4910438;29;20040;-80
2023/09/08 04:22:16;;;;;;;10.98;8.40;;;;;;;;;;4925260;29;20036;-80
2023/09/08 04:24:42;;;;;;;12.55;8.43;;;;;;;;;;4908584;29;20056;-80
2023/09/08 04:27:09;;;;;;;11.38;8.48;;;;;;;;;;4910124;29;20106;-80
2023/09/08 04:29:34;;;;;;;13.98;9.77;;;;;;;;;;4914195;29;20121;-79
2023/09/08 04:31:59;;;;;;;16.17;10.48;;;;;;;;;;4909012;29;20036;-80
2023/09/08 04:34:25;;;;;;;11.85;9.90;;;;;;;;;;4893786;29;20028;-80
2023/09/08 04:36:50;;;;;;;14.32;9.00;;;;;;;;;;4894151;29;20028;-80
2023/09/08 04:39:15;;;;;;;11.80;8.45;;;;;;;;;;4906261;29;20040;-80
2023/09/08 04:41:41;;;;;;;10.85;8.00;;;;;;;;;;4908605;29;20164;-80
2023/09/08 04:44:06;;;;;;;15.48;8.63;;;;;;;;;;4922620;29;20408;-80
2023/09/08 04:46:31;;;;;;;15.50;9.80;;;;;;;;;;4925083;29;20028;-80
2023/09/08 04:48:57;;;;;;;10.98;8.77;;;;;;;;;;4893698;29;20405;-80
2023/09/08 04:51:23;;;;;;;12.52;8.60;;;;;;;;;;4924765;29;20091;-79
2023/09/08 04:53:48;;;;;;;15.70;8.90;;;;;;;;;;4905446;29;20029;-79
2023/09/08 04:56:14;;;;;;;13.02;8.45;;;;;;;;;;4912558;29;20036;-80
2023/09/08 04:58:40;;;;;;;12.18;9.73;;;;;;;;;;4906258;29;20036;-79
2023/09/08 05:01:06;;;;;;;12.32;9.13;;;;;;;;;;4909058;29;20028;-79
2023/09/08 05:03:31;;;;;;;15.20;11.60;;;;;;;;;;4909251;29;20403;-79
2023/09/08 05:05:57;;;;;;;21.05;10.10;;;;;;;;;;4906425;29;20028;-80
2023/09/08 05:08:22;;;;;;;9.90;7.90;;;;;;;;;;4909280;29;20602;-79
2023/09/08 05:10:48;;;;;;;11.65;8.20;;;;;;;;;;4908732;29;20039;-80
2023/09/08 05:13:16;;;;;;;11.35;7.80;;;;;;;;;;4917064;29;20033;-80
2023/09/08 05:15:43;;;;;;;15.85;10.68;;;;;;;;;;4913043;29;20036;-79
2023/09/08 05:18:09;;;;;;;12.90;9.45;;;;;;;;;;4895236;29;20028;-78
2023/09/08 05:20:34;;;;;;;12.60;9.43;;;;;;;;;;4914003;29;20039;-79
2023/09/08 05:22:59;;;;;;;12.57;8.82;;;;;;;;;;4919131;29;20124;-80
2023/09/08 05:25:25;;;;;;;10.65;7.25;;;;;;;;;;4917994;29;20168;-78
2023/09/08 05:27:50;;;;;;;12.85;9.05;;;;;;;;;;4912090;29;20377;-80
2023/09/08 05:30:16;;;;;;;11.10;9.35;;;;;;;;;;4925503;29;20092;-80
2023/09/08 05:32:41;;;;;;;12.73;9.23;;;;;;;;;;4912436;29;20024;-80
2023/09/08 05:35:07;;;;;;;15.00;10.23;;;;;;;;;;4912875;29;20112;-79
2023/09/08 05:37:33;;;;;;;17.23;12.50;;;;;;;;;;4894926;29;20025;-80
2023/09/08 05:39:58;;;;;;;13.00;9.88;;;;;;;;;;4912330;29;20037;-80
2023/09/08 05:42:23;;;;;;;13.80;10.93;;;;;;;;;;4911315;29;20057;-79
2023/09/08 05:44:49;;;;;;;17.83;12.68;;;;;;;;;;4919758;29;20047;-79
2023/09/08 05:47:15;;;;;;;15.73;11.52;;;;;;;;;;4896883;29;20040;-80
2023/09/08 05:49:40;;;;;;;16.27;11.95;;;;;;;;;;4917243;29;20100;-80
2023/09/08 05:52:05;;;;;;;12.77;9.43;;;;;;;;;;4895145;29;20028;-79
2023/09/08 05:54:32;;;;;;;12.75;10.27;;;;;;;;;;4927835;29;20043;-78
2023/09/08 05:56:58;;;;;;;16.77;12.85;;;;;;;;;;4916811;29;20481;-80
2023/09/08 05:59:23;;;;;;;17.67;13.10;;;;;;;;;;4912821;29;20104;-79
2023/09/08 06:01:48;;;;;;;14.50;11.50;;;;;;;;;;4912103;29;20036;-80
2023/09/08 06:04:14;;;;;;;11.45;10.07;;;;;;;;;;4909201;29;20032;-80
2023/09/08 06:06:39;;;;;;;12.07;9.23;;;;;;;;;;4913980;29;20043;-80
2023/09/08 06:09:06;;;;;;;11.20;9.32;;;;;;;;;;4911685;29;20044;-80
2023/09/08 06:11:31;;;;;;;12.85;9.70;;;;;;;;;;4911740;29;20104;-80
2023/09/08 06:13:59;;;;;;;14.57;11.48;;;;;;;;;;4919480;29;20484;-80
2023/09/08 06:16:26;;;;;;;13.18;10.48;;;;;;;;;;4912987;29;20028;-80
2023/09/08 06:18:51;;;;;;;14.73;11.15;;;;;;;;;;4910216;29;20029;-80
2023/09/08 06:21:18;;;;;;;19.90;10.20;;;;;;;;;;4918581;29;20084;-80
2023/09/08 06:23:44;;;;;;;13.63;9.88;;;;;;;;;;4916960;29;20556;-80
2023/09/08 06:26:12;;;;;;;11.75;9.13;;;;;;;;;;4914220;29;20031;-80
2023/09/08 06:28:37;;;;;;;13.50;10.25;;;;;;;;;;4897606;29;20047;-80
2023/09/08 06:31:04;;;;;;;11.52;9.95;;;;;;;;;;4911100;29;20497;-80
2023/09/08 06:33:29;;;;;;;15.68;11.77;;;;;;;;;;4895754;29;20037;-80
2023/09/08 06:35:55;;;;;;;18.52;11.98;;;;;;;;;;4911896;29;20076;-80
2023/09/08 06:38:20;;;;;;;21.48;12.88;;;;;;;;;;4925946;29;20064;-80
2023/09/08 06:40:45;;;;;;;15.77;11.63;;;;;;;;;;4925497;29;20039;-80
2023/09/08 06:43:11;;;;;;;16.00;9.75;;;;;;;;;;4911276;29;20036;-80
2023/09/08 06:45:46;;;;;;;16.52;12.90;;;;;;;;;;4926689;29;20032;-80
2023/09/08 06:48:12;;;;;;;15.25;10.20;;;;;;;;;;4913009;29;20040;-80
2023/09/08 06:50:37;;;;;;;11.23;9.32;;;;;;;;;;4916170;29;20036;-80
2023/09/08 06:53:02;;;;;;;14.90;8.02;;;;;;;;;;4895977;29;20039;-80
2023/09/08 06:55:28;;;;;;;8.93;6.93;;;;;;;;;;4918663;29;20252;-80
2023/09/08 06:57:53;;;;;;;13.73;8.02;;;;;;;;;;4896208;29;20083;-79
2023/09/08 07:00:20;;;;;;;12.55;8.82;;;;;;;;;;4908231;29;20516;-80
2023/09/08 07:02:46;;;;;;;11.07;9.18;;;;;;;;;;4910860;29;20506;-81
2023/09/08 07:05:11;;;;;;;11.45;7.72;;;;;;;;;;4918994;29;20036;-80
2023/09/08 07:07:37;;;;;;;13.10;9.05;;;;;;;;;;4913042;29;20028;-80
2023/09/08 07:10:03;;;;;;;10.80;8.27;;;;;;;;;;4916383;29;20028;-80
2023/09/08 07:12:29;;;;;;;10.27;8.45;;;;;;;;;;4909529;29;20055;-79
2023/09/08 07:14:54;;;;;;;11.65;8.82;;;;;;;;;;4912165;29;20032;-80
2023/09/08 07:17:19;;;;;;;13.05;10.32;;;;;;;;;;4917910;29;20059;-80
2023/09/08 07:19:44;;;;;;;14.05;11.40;;;;;;;;;;4908919;29;20056;-79
2023/09/08 07:22:10;;;;;;;12.30;8.25;;;;;;;;;;4909485;29;20058;-80
2023/09/08 07:24:35;;;;;;;10.20;8.57;;;;;;;;;;4911736;29;20031;-80
2023/09/08 07:27:01;;;;;;;11.68;8.13;;;;;;;;;;4918446;29;20024;-80
2023/09/08 07:29:27;;;;;;;14.02;10.80;;;;;;;;;;4909613;29;20028;-80
2023/09/08 07:31:53;;;;;;;13.43;10.50;;;;;;;;;;4909571;29;20497;-80
2023/09/08 07:34:18;;;;;;;11.73;8.80;;;;;;;;;;4910039;29;20460;-80
2023/09/08 07:36:43;;;;;;;11.73;9.52;;;;;;;;;;4917028;29;20115;-80
2023/09/08 07:39:08;;;;;;;12.77;9.63;;;;;;;;;;4922659;29;20040;-80
2023/09/08 07:41:34;;;;;;;11.85;9.65;;;;;;;;;;4908468;29;20043;-80
2023/09/08 07:44:00;;;;;;;11.77;9.27;;;;;;;;;;4925283;29;20031;-80
2023/09/08 07:46:26;;;;;;;8.77;7.10;;;;;;;;;;4909091;29;20120;-80
2023/09/08 07:48:51;;;;;;;9.50;7.25;;;;;;;;;;4912851;29;20040;-79
2023/09/08 07:51:16;;;;;;;9.50;7.22;;;;;;;;;;4908226;29;20091;-80
2023/09/08 07:53:41;;;;;;;8.30;6.70;;;;;;;;;;4910352;29;20036;-80
2023/09/08 07:56:06;;;;;;;12.93;8.80;;;;;;;;;;4909318;29;20287;-80
2023/09/08 07:58:32;;;;;;;10.63;9.45;;;;;;;;;;4914115;29;20276;-80
2023/09/08 08:00:57;;;;;;;13.70;10.07;;;;;;;;;;4908078;29;20039;-80
2023/09/08 08:03:22;;;;;;;12.18;10.25;;;;;;;;;;4909906;29;20557;-81
2023/09/08 08:05:47;;;;;;;12.20;9.20;;;;;;;;;;4908736;29;20036;-80
2023/09/08 08:08:13;;;;;;;15.25;10.43;;;;;;;;;;4908867;29;20516;-80
2023/09/08 08:10:40;;;;;;;12.13;6.80;;;;;;;;;;4926756;29;20417;-80
2023/09/08 08:13:05;;;;;;;10.15;7.72;;;;;;;;;;4891851;29;20035;-79
2023/09/08 08:15:37;;;;;;;10.77;8.10;;;;;;;;;;4911247;29;20032;-81
2023/09/08 08:18:04;;;;;;;16.17;10.02;;;;;;;;;;4911220;29;20038;-80
2023/09/08 08:20:29;;;;;;;14.82;9.02;;;;;;;;;;4910846;29;20099;-80
2023/09/08 08:22:54;;;;;;;13.43;9.77;;;;;;;;;;4921926;29;20033;-80
2023/09/08 08:25:20;;;;;;;8.15;6.00;;;;;;;;;;4910764;29;20071;-80
2023/09/08 08:27:45;;;;;;;8.95;5.80;;;;;;;;;;4914711;29;20064;-79
2023/09/08 08:30:11;;;;;;;7.95;5.95;;;;;;;;;;4913079;29;20103;-80
2023/09/08 08:32:36;;;;;;;6.75;5.70;;;;;;;;;;4909000;29;20048;-80
2023/09/08 08:35:04;;;;;;;9.60;7.60;;;;;;;;;;4925619;29;20033;-79
2023/09/08 08:37:29;;;;;;;11.02;8.60;;;;;;;;;;4910216;29;20115;-80
2023/09/08 08:39:54;;;;;;;9.93;7.83;;;;;;;;;;4910674;29;20112;-80
2023/09/08 08:42:22;;;;;;;11.20;7.22;;;;;;;;;;4910171;29;20304;-79
2023/09/08 08:44:47;;;;;;;9.68;7.63;;;;;;;;;;4908360;29;20059;-80
2023/09/08 08:47:13;;;;;;;9.65;7.85;;;;;;;;;;4908574;29;20095;-80
2023/09/08 08:49:42;;;;;;;10.38;7.40;;;;;;;;;;4940088;23;20040;-79
2023/09/08 08:52:08;;;;;;;8.48;6.10;;;;;;;;;;4925596;29;20028;-79
2023/09/08 08:54:40;;;;;;;12.73;8.27;;;;;;;;;;4923217;29;20036;-79
2023/09/08 08:57:06;;;;;;;10.02;7.38;;;;;;;;;;4926592;29;20036;-78
2023/09/08 08:59:32;;;;;;;12.65;7.90;;;;;;;;;;4921904;29;20123;-79
2023/09/08 09:01:58;;;;;;;8.23;7.17;;;;;;;;;;4908915;29;20111;-79
2023/09/08 09:04:23;;;;;;;9.68;7.18;;;;;;;;;;4904223;29;20296;-79
2023/09/08 09:06:49;;;;;;;9.77;7.10;;;;;;;;;;4907771;29;20028;-79
2023/09/08 09:09:14;;;;;;;10.27;7.60;;;;;;;;;;4908298;29;20521;-79
2023/09/08 09:11:40;;;;;;;10.90;7.53;;;;;;;;;;4902968;29;20048;-79
2023/09/08 09:14:05;;;;;;;9.57;7.15;;;;;;;;;;4910706;29;20048;-79
2023/09/08 09:16:30;;;;;;;10.27;7.77;;;;;;;;;;4907401;29;20043;-79
2023/09/08 09:18:59;;;;;;;12.57;8.80;;;;;;;;;;4913268;29;20275;-79
2023/09/08 09:21:40;;;;;;;12.35;7.47;;;;;;;;;;4908978;29;20319;-79
2023/09/08 09:24:05;;;;;;;8.03;5.70;;;;;;;;;;4909193;29;20119;-79
2023/09/08 09:26:30;;;;;;;7.22;5.65;;;;;;;;;;4906061;29;20079;-79
2023/09/08 09:28:57;;;;;;;9.13;4.80;;;;;;;;;;4904866;29;20036;-79
2023/09/08 09:31:25;;;;;;;6.40;4.20;;;;;;;;;;4910519;29;20289;-79
2023/09/08 09:34:06;;;;;;;11.60;10.40;;;;;;;;;;4913940;29;20047;-79
2023/09/08 09:36:31;;;;;;;8.98;7.60;;;;;;;;;;4905201;29;20050;-79
2023/09/08 09:39:00;;;;;;;14.00;7.57;;;;;;;;;;4905497;29;20028;-79
2023/09/08 09:41:27;;;;;;;9.18;5.57;;;;;;;;;;4908096;29;20360;-78
2023/09/08 09:43:52;;;;;;;7.15;5.05;;;;;;;;;;4908238;29;20039;-79
2023/09/08 09:46:20;;;;;;;6.05;3.88;;;;;;;;;;4908301;29;20028;-79
2023/09/08 09:48:45;;;;;;;9.85;6.10;;;;;;;;;;4904592;29;20087;-79
2023/09/08 09:51:18;;;;;;;11.43;6.67;;;;;;;;;;4891706;29;20042;-79
2023/09/08 09:53:43;;;;;;;7.05;5.40;;;;;;;;;;4906303;29;20356;-79
2023/09/08 09:56:09;;;;;;;9.02;6.43;;;;;;;;;;4913562;29;20544;-79
2023/09/08 09:58:35;;;;;;;8.27;6.35;;;;;;;;;;4921830;29;20032;-79
2023/09/08 10:01:00;;;;;;;7.32;4.95;;;;;;;;;;4914959;29;20028;-79
2023/09/08 10:03:26;;;;;;;6.22;4.72;;;;;;;;;;4908728;29;20428;-79
2023/09/08 10:05:52;;;;;;;5.95;4.72;;;;;;;;;;4916941;29;20039;-79
2023/09/08 10:08:17;;;;;;;7.50;5.68;;;;;;;;;;4908693;29;20047;-79
2023/09/08 10:10:45;;;;;;;5.85;4.47;;;;;;;;;;4897257;29;20027;-79
2023/09/08 10:13:11;;;;;;;6.57;3.97;;;;;;;;;;4909085;29;20036;-79
2023/09/08 10:15:37;;;;;;;5.70;3.53;;;;;;;;;;4909694;29;20033;-79
2023/09/08 10:18:04;;;;;;;9.00;5.28;;;;;;;;;;4908263;29;20032;-79
2023/09/08 10:20:31;;;;;;;7.82;4.38;;;;;;;;;;4911305;29;20039;-79
2023/09/08 10:23:01;;;;;;;7.80;4.05;;;;;;;;;;4908110;29;20045;-79
2023/09/08 10:25:29;;;;;;;7.38;4.47;;;;;;;;;;4910960;29;20135;-79
2023/09/08 10:27:55;;;;;;;8.95;6.38;;;;;;;;;;4920380;29;20115;-79
2023/09/08 10:30:21;;;;;;;8.82;5.80;;;;;;;;;;4909571;29;20112;-79
2023/09/08 10:32:49;;;;;;;6.93;5.15;;;;;;;;;;4910394;29;20499;-79
2023/09/08 10:35:17;;;;;;;6.55;5.45;;;;;;;;;;4906519;29;20116;-79
2023/09/08 10:37:42;;;;;;;7.75;4.93;;;;;;;;;;4910481;29;20025;-79
2023/09/08 10:40:24;;;;;;;6.32;3.25;;;;;;;;;;4909157;29;20511;-80
2023/09/08 10:42:49;;;;;;;8.80;5.55;;;;;;;;;;4910024;29;20560;-79
2023/09/08 10:45:18;;;;;;;8.82;5.68;;;;;;;;;;4907321;29;20068;-79
2023/09/08 10:47:46;;;;;;;5.80;4.60;;;;;;;;;;4905789;29;20029;-79
2023/09/08 10:50:18;;;;;;;6.43;4.20;;;;;;;;;;4909634;29;20136;-79
2023/09/08 10:52:44;;;;;;;11.48;4.70;;;;;;;;;;4908339;29;20124;-79
2023/09/08 10:55:10;;;;;;;6.50;3.40;;;;;;;;;;4908784;29;20063;-79
2023/09/08 10:57:35;;;;;;;12.40;6.57;;;;;;;;;;4908395;29;20024;-79
2023/09/08 11:00:11;;;;;;;10.70;6.73;;;;;;;;;;4912666;29;20036;-79
2023/09/08 11:02:41;;;;;;;8.55;6.13;;;;;;;;;;4910451;29;20690;-79
2023/09/08 11:05:08;;;;;;;6.57;4.03;;;;;;;;;;4906824;29;20029;-79
2023/09/08 11:07:34;;;;;;;7.60;4.70;;;;;;;;;;4910253;29;20095;-80
2023/09/08 11:10:00;;;;;;;7.63;4.82;;;;;;;;;;4907473;29;20119;-79
2023/09/08 11:12:28;;;;;;;7.03;4.78;;;;;;;;;;4910906;29;20084;-79
2023/09/08 11:14:54;;;;;;;8.82;4.78;;;;;;;;;;4909282;29;20091;-79
2023/09/08 11:17:19;;;;;;;9.15;5.30;;;;;;;;;;4917885;29;20505;-79
2023/09/08 11:19:48;;;;;;;9.33;6.27;;;;;;;;;;4909753;29;20024;-79
2023/09/08 11:22:14;;;;;;;6.45;4.78;;;;;;;;;;4915847;29;20038;-79
2023/09/08 11:24:41;;;;;;;8.00;5.95;;;;;;;;;;4907929;29;20119;-79
2023/09/08 11:27:06;;;;;;;10.05;6.45;;;;;;;;;;4906228;29;20609;-79
2023/09/08 11:29:32;;;;;;;7.37;6.07;;;;;;;;;;4907951;29;20045;-79
2023/09/08 11:31:58;;;;;;;8.60;6.40;;;;;;;;;;4914549;29;20645;-79
2023/09/08 11:34:24;;;;;;;10.50;5.20;;;;;;;;;;4907397;29;20057;-79
2023/09/08 11:36:50;;;;;;;12.73;6.38;;;;;;;;;;4909239;29;20038;-79
2023/09/08 11:39:15;;;;;;;7.55;4.80;;;;;;;;;;4906999;29;20092;-79
2023/09/08 11:41:41;;;;;;;7.95;5.45;;;;;;;;;;4910642;29;20084;-79
2023/09/08 11:44:06;;;;;;;10.48;5.90;;;;;;;;;;4908660;29;20083;-79
2023/09/08 11:46:31;;;;;;;9.10;5.78;;;;;;;;;;4906550;29;20056;-79
2023/09/08 11:48:57;;;;;;;8.13;5.53;;;;;;;;;;4891938;29;20511;-79
2023/09/08 11:51:23;;;;;;;10.30;6.45;;;;;;;;;;4910838;29;20287;-79
2023/09/08 11:53:48;;;;;;;6.55;4.28;;;;;;;;;;4908002;29;20119;-79
2023/09/08 11:56:13;;;;;;;6.43;3.90;;;;;;;;;;4913645;29;20544;-79
2023/09/08 11:58:39;;;;;;;6.95;4.97;;;;;;;;;;4904297;29;20299;-79
2023/09/08 12:01:04;;;;;;;8.27;4.82;;;;;;;;;;4908732;29;20071;-80
2023/09/08 12:03:29;;;;;;;7.13;5.10;;;;;;;;;;4914159;29;20543;-79
2023/09/08 12:05:55;;;;;;;6.77;4.70;;;;;;;;;;4905353;29;20047;-79
2023/09/08 12:08:20;;;;;;;8.43;5.67;;;;;;;;;;4907768;29;20519;-79
2023/09/08 12:10:45;;;;;;;7.65;3.83;;;;;;;;;;4904809;29;20042;-80
2023/09/08 12:13:11;;;;;;;9.38;4.53;;;;;;;;;;4910808;29;20040;-79
2023/09/08 12:15:37;;;;;;;9.63;4.38;;;;;;;;;;4907141;29;20032;-79
2023/09/08 12:18:06;;;;;;;5.32;3.50;;;;;;;;;;4903979;29;20119;-79
2023/09/08 12:20:31;;;;;;;6.00;4.32;;;;;;;;;;4906144;29;20073;-79
2023/09/08 12:22:59;;;;;;;7.22;4.40;;;;;;;;;;4913043;29;20066;-79
2023/09/08 12:25:24;;;;;;;7.30;5.18;;;;;;;;;;4908202;29;20047;-79
2023/09/08 12:27:50;;;;;;;9.57;4.70;;;;;;;;;;4904965;29;20505;-79
2023/09/08 12:30:29;;;;;;;6.78;4.13;;;;;;;;;;4905886;29;20638;-80
2023/09/08 12:32:55;;;;;;;7.03;3.33;;;;;;;;;;4912016;29;20035;-79
2023/09/08 12:35:22;;;;;;;5.72;4.57;;;;;;;;;;4912447;29;20533;-80
2023/09/08 12:37:52;;;;;;;5.35;4.13;;;;;;;;;;4905281;29;20032;-79
2023/09/08 12:40:17;;;;;;;4.70;3.63;;;;;;;;;;4908020;29;20073;-80
2023/09/08 12:42:43;;;;;;;8.23;5.17;;;;;;;;;;4905891;29;20750;-79
2023/09/08 12:45:08;;;;;;;7.20;5.05;;;;;;;;;;4915138;29;20516;-79
2023/09/08 12:47:35;;;;;;;8.80;5.45;;;;;;;;;;4906180;29;20164;-79
2023/09/08 12:50:00;;;;;;;5.15;4.45;;;;;;;;;;4906127;29;20080;-80
2023/09/08 12:52:25;;;;;;;6.93;4.82;;;;;;;;;;4903177;29;20028;-79
2023/09/08 12:54:50;;;;;;;7.80;5.30;;;;;;;;;;4914839;29;20519;-79
2023/09/08 12:57:16;;;;;;;7.67;5.67;;;;;;;;;;4907360;29;20064;-79
2023/09/08 12:59:41;;;;;;;4.50;3.17;;;;;;;;;;4907035;29;20041;-80
2023/09/08 13:02:06;;;;;;;5.00;3.97;;;;;;;;;;4907102;29;20042;-79
2023/09/08 13:04:32;;;;;;;5.68;4.90;;;;;;;;;;4908351;29;20319;-79
2023/09/08 13:06:58;;;;;;;5.10;3.80;;;;;;;;;;4915091;29;20453;-79
2023/09/08 13:09:23;;;;;;;6.90;4.90;;;;;;;;;;4906163;29;20319;-79
2023/09/08 13:11:48;;;;;;;4.47;3.65;;;;;;;;;;4901971;29;20578;-79
2023/09/08 13:14:14;;;;;;;4.60;3.03;;;;;;;;;;4913045;29;20032;-79
2023/09/08 13:16:39;;;;;;;5.03;4.00;;;;;;;;;;4908453;29;20489;-79
2023/09/08 13:19:05;;;;;;;5.00;3.87;;;;;;;;;;4909328;29;20036;-79
2023/09/08 13:21:30;;;;;;;4.97;3.85;;;;;;;;;;4906478;29;20374;-79
2023/09/08 13:23:55;;;;;;;5.30;3.27;;;;;;;;;;4913456;29;20070;-79
2023/09/08 13:26:21;;;;;;;4.97;3.47;;;;;;;;;;4913721;29;20279;-79
2023/09/08 13:28:46;;;;;;;4.70;3.30;;;;;;;;;;4905629;29;20024;-79
2023/09/08 13:31:11;;;;;;;7.80;3.55;;;;;;;;;;4905128;29;20045;-80
2023/09/08 13:33:36;;;;;;;6.70;3.83;;;;;;;;;;4908312;29;20044;-79
2023/09/08 13:36:02;;;;;;;6.33;4.00;;;;;;;;;;4913729;29;20032;-79
2023/09/08 13:38:27;;;;;;;5.77;3.33;;;;;;;;;;4913249;29;20107;-79
2023/09/08 13:40:52;;;;;;;5.27;3.60;;;;;;;;;;4908661;29;20295;-79
2023/09/08 13:43:18;;;;;;;5.35;3.25;;;;;;;;;;4908778;29;20032;-79
2023/09/08 13:45:43;;;;;;;5.40;3.90;;;;;;;;;;4911524;29;20062;-79
2023/09/08 13:48:08;;;;;;;6.20;4.78;;;;;;;;;;4910587;29;20036;-79
2023/09/08 13:50:34;;;;;;;6.17;3.60;;;;;;;;;;4909451;29;20437;-80
2023/09/08 13:52:59;;;;;;;4.25;3.38;;;;;;;;;;4908242;29;20620;-80
2023/09/08 13:55:24;;;;;;;7.77;4.23;;;;;;;;;;4910505;29;20044;-79
2023/09/08 13:57:50;;;;;;;6.00;3.80;;;;;;;;;;4912346;29;20344;-80
2023/09/08 14:00:15;;;;;;;7.00;4.78;;;;;;;;;;4911723;29;20040;-79
2023/09/08 14:02:41;;;;;;;7.65;4.65;;;;;;;;;;4907751;29;20497;-80
2023/09/08 14:05:06;;;;;;;5.47;4.18;;;;;;;;;;4918386;29;20107;-79
2023/09/08 14:07:32;;;;;;;4.45;3.70;;;;;;;;;;4917946;29;20523;-79
2023/09/08 14:09:57;;;;;;;5.73;3.80;;;;;;;;;;4911155;29;20037;-79
2023/09/08 14:12:23;;;;;;;4.37;3.43;;;;;;;;;;4907311;29;20039;-79
2023/09/08 14:14:49;;;;;;;6.75;4.80;;;;;;;;;;4910964;29;20028;-79
2023/09/08 14:17:14;;;;;;;6.15;4.38;;;;;;;;;;4909455;29;20091;-79
2023/09/08 14:19:39;;;;;;;11.37;3.53;;;;;;;;;;4921491;29;20040;-79
2023/09/08 14:22:04;;;;;;;6.27;3.77;;;;;;;;;;4906811;29;20039;-80
2023/09/08 14:24:29;;;;;;;5.87;4.27;;;;;;;;;;4911012;29;20040;-80
2023/09/08 14:26:54;;;;;;;7.17;4.30;;;;;;;;;;4912083;29;20036;-79